Gillette, WY

3:25 PM MDT on April 24, 2017 (GMT -0600)
Gillette-Campbell County | | Change Station
Active Advisory: Winter Weather Advisory

Elev 4364 ft 44.35 °N, 105.54 °W | Updated 32 minutes ago

Scattered Clouds
Scattered Clouds
61 °F
Feels Like 61 °F
N
8
Wind Variable Wind from NE

Today
High -- | Low -- °F
--% Chance of Precip.
Yesterday
High -- | Low -- °F
Precip. -- in
Pressure 29.51 in
Visibility 10.0 miles
Clouds Few 5500 ft
Scattered Clouds 8000 ft
Dew Point 36 °F
Humidity 39%
Rainfall 0.00 in
Snow Depth Not available.
6:03 AM 7:58 PM
Waning Crescent, 4% visible
METAR KGCC 242053Z AUTO 05007KT 10SM FEW055 SCT080 16/02 A2958 RMK AO2 SLP993 T01610022 58011
Pressure 29.51 in
Visibility 10.0 miles
Clouds Few 5500 ft
Scattered Clouds 8000 ft
Dew Point 36 °F
Humidity 39%
Rainfall 0.00 in
Snow Depth Not available.
6:03 AM 7:58 PM
Waning Crescent, 4% visible
METAR KGCC 242053Z AUTO 05007KT 10SM FEW055 SCT080 16/02 A2958 RMK AO2 SLP993 T01610022 58011

Get Your Daily Forecast Email!

Thanks for signing up!

Be on the lookout for a verification email in your inbox.

You'll start receiving severe weather alerts in your inbox..

×

10-Day Weather Forecast

Almanac

Astronomy

Apr. 24, 2017 Rise Set
Actual Time
Civil Twilight
Nautical Twilight
Astronomical Twilight
Moon
Length of Visible Light
Length of Day
Tomorrow will be .
, % of the Moon is Illuminated

Today's Extremes

State Highs State Lows

Community

WunderPhotos

WunderBlog® & News

Nearby

Air Quality

  Air Quality AQ Index Pollutant
Not available.

Snow Depth

Station Depth Elevation

Earthquake Activity

City Distance Mag. Time & Date
Minimum magnitude displayed is 2.5.

Coastal Water Temperatures

Place Temperature

Stations

Nearby Weather Stations

Station Location Temp. Windchill Dew Point Humidity Wind Precip. Elev Updated Type
                   

Watches & Warnings

Winter Weather Advisory
Issued: 2:46 PM MDT Apr. 24, 2017 – National Weather Service

... Winter Weather Advisory in effect from midnight tonight to
3 PM MDT Tuesday...

The National Weather Service in Rapid City has issued a Winter
Weather Advisory for snow, which is in effect from midnight
tonight to 3 PM MDT Tuesday. The Winter Storm Watch is no longer
in effect.

* Timing... rain will move into the area this evening, changing
over to snow after midnight. Snow will persist into Tuesday
morning, tapering off in the afternoon.

* Main impact... snowfall totals of 3 to 6 inches are expected,
with locally higher amounts possible, especially across far northern
Campbell and northern Crook counties.

* Other impacts... with many trees beginning to Leaf out, the heavy
wet snow could bring down some tree limbs.

Precautionary/preparedness actions...

A Winter Weather Advisory for snow means snow accumulation will
create hazardous conditions. Use caution when traveling.